Time;durP1;ratioP1;P1;durP2;ratioP2;P2;SDS_P1;SDS_P2;PMS_P1;PMS_P2;Temp;Humidity;BMP_temperature;BMP_pressure;BME280_temperature;BME280_humidity;BME280_pressure;Samples;Min_cycle;Max_cycle;Signal;HPM_P1;HPM_P2
2022/08/08 00:00:30;;;;;;;3.12;1.94;;;;;;;22.78;54.06;100813.76;455027;114;922612;-75
2022/08/08 00:01:45;;;;;;;3.01;1.97;;;;;;;22.77;53.99;100812.92;455368;116;922545;-75
2022/08/08 00:03:02;;;;;;;3.45;1.93;;;;;;;22.77;54.05;100812.92;455090;116;922610;-76
2022/08/08 00:04:20;;;;;;;2.68;1.74;;;;;;;22.77;54.14;100817.69;455082;116;922550;-75
2022/08/08 00:05:31;;;;;;;3.26;2.13;;;;;;;22.76;54.25;100816.85;456628;114;922640;-75
2022/08/08 00:06:46;;;;;;;2.76;1.63;;;;;;;22.76;54.30;100822.41;456326;115;923079;-75
2022/08/08 00:08:24;;;;;;;3.00;1.73;;;;;;;22.75;54.32;100815.19;457208;115;922913;-76
2022/08/08 00:09:41;;;;;;;2.06;1.80;;;;;;;22.76;54.24;100822.41;457293;116;922643;-75
2022/08/08 00:10:50;;;;;;;2.71;1.72;;;;;;;22.74;54.36;100830.20;457088;114;922538;-75
2022/08/08 00:12:00;;;;;;;1.67;1.53;;;;;;;22.73;54.51;100827.70;457301;115;922739;-76
2022/08/08 00:13:12;;;;;;;6.37;1.97;;;;;;;22.72;54.48;100824.09;456321;115;923239;-75
2022/08/08 00:14:32;;;;;;;2.93;1.83;;;;;;;22.83;54.41;100828.45;477014;110;947066;-74
2022/08/08 00:15:46;;;;;;;2.51;1.63;;;;;;;22.73;54.30;100838.81;462646;113;922551;-74
2022/08/08 00:17:04;;;;;;;3.72;2.12;;;;;;;22.73;54.32;100827.70;456244;116;922565;-74
2022/08/08 00:18:18;;;;;;;2.08;1.78;;;;;;;22.73;54.18;100828.53;456619;116;922620;-75
2022/08/08 00:19:37;;;;;;;3.49;2.16;;;;;;;22.73;53.98;100834.09;456422;116;922597;-75
2022/08/08 00:20:51;;;;;;;2.21;1.91;;;;;;;22.73;53.80;100833.26;456472;116;922643;-75
2022/08/08 00:22:15;;;;;;;2.55;1.88;;;;;;;22.68;53.63;100831.32;457099;116;922905;-75
2022/08/08 00:23:31;;;;;;;2.48;1.89;;;;;;;22.66;53.55;100827.19;449855;116;923293;-75
2022/08/08 00:24:40;;;;;;;2.02;1.77;;;;;;;22.62;53.57;100838.03;456649;116;922772;-74
2022/08/08 00:25:49;;;;;;;3.26;2.00;;;;;;;22.59;53.64;100832.23;457205;114;922651;-75
2022/08/08 00:27:00;;;;;;;1.95;1.72;;;;;;;22.56;53.78;100828.06;457274;116;922620;-76
2022/08/08 00:28:06;;;;;;;2.47;1.92;;;;;;;22.58;53.96;100827.78;457247;113;923124;-75
2022/08/08 00:29:27;;;;;;;3.40;1.66;;;;;;;22.58;54.08;100830.56;455035;116;922737;-75
2022/08/08 00:30:35;;;;;;;6.02;2.27;;;;;;;22.59;54.17;100833.06;455435;114;922654;-75
2022/08/08 00:31:44;;;;;;;1.84;1.74;;;;;;;22.59;54.20;100833.06;457041;115;922672;-75
2022/08/08 00:33:04;;;;;;;2.43;1.81;;;;;;;22.60;54.22;100834.73;454994;116;922821;-75
2022/08/08 00:35:09;;;;;;;2.34;2.03;;;;;;;22.71;54.31;100835.48;484103;108;946863;-74
2022/08/08 00:36:29;;;;;;;2.88;1.88;;;;;;;22.59;54.37;100827.50;479818;110;922551;-75
2022/08/08 00:37:43;;;;;;;2.29;2.09;;;;;;;22.55;54.30;100828.38;480912;110;922480;-75
2022/08/08 00:39:04;;;;;;;3.86;1.73;;;;;;;22.52;54.31;100831.72;478590;110;922568;-75
2022/08/08 00:40:16;;;;;;;;;;;;;;;22.48;54.40;100839.80;482597;110;922424;-75
2022/08/08 00:41:34;;;;;;;2.31;2.11;;;;;;;22.48;54.66;100836.19;478655;110;922660;-75
2022/08/08 00:42:59;;;;;;;2.97;2.12;;;;;;;22.45;54.74;100837.58;477244;110;922639;-75
2022/08/08 00:44:17;;;;;;;3.44;1.97;;;;;;;22.43;54.91;100835.12;478655;110;922656;-75
2022/08/08 00:45:44;;;;;;;3.74;1.98;;;;;;;22.43;55.10;100834.28;478952;110;922712;-75
2022/08/08 00:47:15;;;;;;;3.13;2.34;;;;;;;22.43;55.21;100834.28;481408;110;922720;-75
2022/08/08 00:48:42;;;;;;;2.24;2.07;;;;;;;22.43;55.23;100839.84;480593;110;922879;-75
2022/08/08 00:49:56;;;;;;;2.36;2.14;;;;;;;22.43;55.31;100834.28;478662;110;922608;-75
2022/08/08 00:51:08;;;;;;;2.97;2.33;;;;;;;22.42;55.36;100832.62;480522;110;922674;-76
2022/08/08 00:52:20;;;;;;;;;;;;;;;22.42;55.36;100838.17;485499;110;922130;-75
2022/08/08 00:53:40;;;;;;;3.96;2.35;;;;;;;22.42;55.39;100833.45;481098;110;922789;-75
2022/08/08 00:54:55;;;;;;;2.74;2.45;;;;;;;22.41;55.47;100839.28;476520;110;922108;-75
2022/08/08 00:56:30;;;;;;;4.48;2.22;;;;;;;22.40;55.40;100837.63;478874;110;922612;-76
2022/08/08 00:58:12;;;;;;;2.68;2.29;;;;;;;22.40;55.30;100840.40;455038;116;923118;-75
2022/08/08 00:59:45;;;;;;;3.32;2.41;;;;;;;22.38;55.24;100837.09;455048;116;922762;-75
2022/08/08 01:01:09;;;;;;;2.58;2.37;;;;;;;22.35;55.35;100835.70;455040;116;922709;-75
2022/08/08 01:02:44;;;;;;;2.85;2.56;;;;;;;22.34;55.43;100834.04;454997;116;923178;-75
2022/08/08 01:04:13;;;;;;;4.82;2.56;;;;;;;22.33;55.50;100834.31;473097;110;923279;-75
2022/08/08 01:05:53;;;;;;;4.01;2.32;;;;;;;22.31;55.52;100829.07;481468;110;922707;-75
2022/08/08 01:07:22;;;;;;;5.26;2.31;;;;;;;22.31;55.54;100831.02;480088;110;923054;-75
2022/08/08 01:09:05;;;;;;;2.39;2.11;;;;;;;22.28;55.43;100834.34;480142;110;922613;-75
2022/08/08 01:10:48;;;;;;;3.84;2.07;;;;;;;22.23;55.39;100837.16;478566;110;922570;-75
2022/08/08 01:12:18;;;;;;;3.34;2.04;;;;;;;22.17;55.52;100833.58;481499;110;922456;-75
2022/08/08 01:13:46;;;;;;;2.86;2.11;;;;;;;22.15;55.69;100835.83;480067;110;923314;-75
2022/08/08 01:15:07;;;;;;;7.26;2.42;;;;;;;22.12;55.81;100839.16;478389;110;922842;-75
2022/08/08 01:16:44;;;;;;;4.17;2.42;;;;;;;22.12;55.89;100839.16;472610;112;922935;-74
2022/08/08 01:18:17;;;;;;;3.58;2.34;;;;;;;22.12;55.86;100835.55;472647;112;922604;-75
2022/08/08 01:19:50;;;;;;;4.59;2.16;;;;;;;22.10;56.02;100837.80;470552;112;922859;-75
2022/08/08 01:21:28;;;;;;;5.33;2.29;;;;;;;22.07;56.11;100839.19;471826;110;922826;-74
2022/08/08 01:22:56;;;;;;;3.97;2.40;;;;;;;22.05;56.08;100831.13;453911;116;923178;-75
2022/08/08 01:24:38;;;;;;;4.46;2.01;;;;;;;22.04;56.11;100836.99;451892;116;922865;-75
2022/08/08 01:26:03;;;;;;;3.90;2.48;;;;;;;22.02;56.23;100842.82;472024;112;922620;-75
2022/08/08 01:27:27;;;;;;;3.16;2.22;;;;;;;22.01;56.22;100838.38;474985;110;923069;-75
2022/08/08 01:28:55;;;;;;;2.64;2.36;;;;;;;22.00;56.28;100838.66;477955;110;922618;-75
2022/08/08 01:30:06;;;;;;;2.62;2.33;;;;;;;21.99;56.39;100839.80;468112;112;922687;-75
2022/08/08 01:31:49;;;;;;;5.24;2.38;;;;;;;21.97;56.42;100842.84;458826;114;922527;-76
2022/08/08 01:33:26;;;;;;;4.62;2.21;;;;;;;21.97;56.46;100847.56;468579;112;922625;-76
2022/08/08 01:34:58;;;;;;;2.48;2.08;;;;;;;21.96;56.58;100845.90;470222;112;922925;-75
2022/08/08 01:36:25;;;;;;;3.71;2.17;;;;;;;21.96;56.62;100845.90;472755;112;922582;-75
2022/08/08 01:37:42;;;;;;;3.96;2.02;;;;;;;21.93;56.64;100841.73;472773;112;922600;-75
2022/08/08 01:39:10;;;;;;;3.73;2.23;;;;;;;21.88;56.58;100843.69;472420;112;922521;-75
2022/08/08 01:40:24;;;;;;;3.04;1.98;;;;;;;21.85;56.64;100850.63;469713;112;923137;-75
2022/08/08 01:41:44;;;;;;;2.93;2.10;;;;;;;21.83;56.71;100855.62;472664;112;922689;-75
2022/08/08 01:43:26;;;;;;;2.68;1.92;;;;;;;21.82;56.73;100855.92;472034;112;922607;-75
2022/08/08 01:44:47;;;;;;;2.82;2.19;;;;;;;21.81;56.74;100855.09;471173;112;922641;-75
2022/08/08 01:46:01;;;;;;;3.02;2.11;;;;;;;21.79;56.88;100857.30;472135;112;922723;-75
2022/08/08 01:47:19;;;;;;;2.71;1.99;;;;;;;21.78;56.98;100854.80;472466;112;930472;-75
2022/08/08 01:48:43;;;;;;;2.24;2.01;;;;;;;21.75;57.11;100847.89;467463;112;922666;-75
2022/08/08 01:49:52;;;;;;;3.14;1.96;;;;;;;21.77;57.18;100858.72;470797;112;922695;-75
2022/08/08 01:51:35;;;;;;;3.01;2.19;;;;;;;21.75;57.20;100858.16;472019;112;922970;-75
2022/08/08 01:53:11;;;;;;;2.68;2.02;;;;;;;21.76;57.24;100854.27;472211;112;922526;-76
2022/08/08 01:54:32;;;;;;;2.63;2.03;;;;;;;21.76;57.31;100857.05;472284;112;922711;-75
2022/08/08 01:55:58;;;;;;;5.11;2.07;;;;;;;21.75;57.35;100858.16;471974;112;922524;-75
2022/08/08 01:57:32;;;;;;;2.81;2.13;;;;;;;21.76;57.35;100859.83;472334;112;922619;-75
2022/08/08 01:58:57;;;;;;;2.83;2.25;;;;;;;21.75;57.43;100863.70;472324;112;922630;-75
2022/08/08 02:00:22;;;;;;;2.43;1.96;;;;;;;21.74;57.39;100865.66;470930;112;922614;-75
2022/08/08 02:01:51;;;;;;;5.49;2.35;;;;;;;21.74;57.36;100860.10;472354;112;923000;-75
2022/08/08 02:03:05;;;;;;;3.03;2.51;;;;;;;21.74;57.32;100862.88;471573;112;922615;-75
2022/08/08 02:04:14;;;;;;;6.02;1.97;;;;;;;21.74;57.25;100865.66;472646;112;922673;-75
2022/08/08 02:05:36;;;;;;;2.38;2.18;;;;;;;21.74;57.28;100860.10;452172;114;923415;-75
2022/08/08 02:07:06;;;;;;;3.32;2.04;;;;;;;21.77;57.37;100867.87;464109;112;922613;-75
2022/08/08 02:08:31;;;;;;;3.02;2.17;;;;;;;21.77;57.42;100867.87;471904;112;922545;-76
2022/08/08 02:09:56;;;;;;;5.47;2.58;;;;;;;21.78;57.45;100872.30;472617;112;923020;-76
2022/08/08 02:11:11;;;;;;;2.38;2.02;;;;;;;21.77;57.33;100862.33;469321;112;922595;-75
2022/08/08 02:12:31;;;;;;;5.50;2.49;;;;;;;21.74;57.27;100859.27;472348;112;922472;-75
2022/08/08 02:13:45;;;;;;;2.92;2.18;;;;;;;21.73;57.25;100866.76;472656;112;922600;-75
2022/08/08 02:14:53;;;;;;;5.11;2.25;;;;;;;21.73;57.35;100863.15;473840;110;922882;-75
2022/08/08 02:16:36;;;;;;;3.16;2.39;;;;;;;21.74;57.38;100875.92;480844;110;922741;-75
2022/08/08 02:17:54;;;;;;;5.32;2.76;;;;;;;21.75;57.39;100872.04;480573;110;923020;-75
2022/08/08 02:19:25;;;;;;;2.94;2.18;;;;;;;21.74;57.49;100875.92;463570;114;922622;-75
2022/08/08 02:22:30;;;;;;;4.59;2.22;;;;;;;21.73;57.50;100872.31;471204;110;922580;-75
2022/08/08 02:23:38;;;;;;;3.14;2.36;;;;;;;21.74;57.40;100885.08;473815;112;922642;-76
2022/08/08 02:24:54;;;;;;;5.27;2.13;;;;;;;21.72;57.37;100873.45;473455;112;922523;-75
2022/08/08 02:26:25;;;;;;;4.02;2.32;;;;;;;21.71;57.41;100871.78;468680;112;922655;-74
2022/08/08 02:27:32;;;;;;;3.31;2.39;;;;;;;21.71;57.38;100874.55;455468;116;922692;-74
2022/08/08 02:28:59;;;;;;;4.02;2.47;;;;;;;21.70;57.41;100875.66;447518;116;923015;-75
2022/08/08 02:30:10;;;;;;;3.48;2.74;;;;;;;21.70;57.40;100875.66;453949;116;922754;-75
2022/08/08 02:31:41;;;;;;;3.08;2.81;;;;;;;21.70;57.33;100875.66;450184;117;922599;-75
2022/08/08 02:33:16;;;;;;;3.71;2.87;;;;;;;21.71;57.31;100877.33;462046;114;922596;-75
2022/08/08 02:34:49;;;;;;;5.37;2.67;;;;;;;21.72;57.28;100880.94;457934;114;922676;-76
2022/08/08 02:36:25;;;;;;;2.67;2.47;;;;;;;21.72;57.32;100880.94;453421;116;922678;-75
2022/08/08 02:37:59;;;;;;;3.02;2.52;;;;;;;21.70;57.33;100886.77;456492;116;922908;-75
2022/08/08 02:39:29;;;;;;;3.24;2.60;;;;;;;21.69;57.35;100878.71;456488;116;922747;-75
2022/08/08 02:40:56;;;;;;;2.91;2.54;;;;;;;21.65;57.37;100878.45;451451;116;922514;-75
2022/08/08 02:42:19;;;;;;;4.14;2.78;;;;;;;21.66;57.40;100882.89;455953;116;922931;-76
2022/08/08 02:43:51;;;;;;;5.54;2.89;;;;;;;21.65;57.51;100892.33;453481;116;923093;-76
2022/08/08 02:45:16;;;;;;;3.44;2.34;;;;;;;21.63;57.48;100892.59;453516;116;922959;-75
2022/08/08 02:46:31;;;;;;;5.49;2.67;;;;;;;21.62;57.53;100890.09;456414;116;923110;-76
2022/08/08 02:47:49;;;;;;;4.43;3.19;;;;;;;21.62;57.54;100899.25;456342;116;922626;-75
2022/08/08 02:49:20;;;;;;;4.32;2.83;;;;;;;21.62;57.59;100890.93;454282;116;922712;-75
2022/08/08 02:50:40;;;;;;;4.47;2.95;;;;;;;21.62;57.65;100888.16;454583;116;923087;-76
2022/08/08 02:52:09;;;;;;;4.14;3.13;;;;;;;21.62;57.57;100895.64;455475;116;922557;-75
2022/08/08 02:53:37;;;;;;;2.91;2.47;;;;;;;21.61;57.46;100888.45;453439;116;922470;-76
2022/08/08 02:54:44;;;;;;;3.73;2.57;;;;;;;21.59;57.52;100891.50;447168;118;922672;-75
2022/08/08 02:56:05;;;;;;;7.52;3.11;;;;;;;21.58;57.42;100905.66;447866;116;923086;-75
2022/08/08 02:57:31;;;;;;;3.15;2.81;;;;;;;21.58;57.52;100897.33;456443;116;922570;-75
2022/08/08 02:58:54;;;;;;;9.46;2.96;;;;;;;21.58;57.52;100894.55;453355;116;923091;-75
2022/08/08 03:00:16;;;;;;;3.72;3.01;;;;;;;21.58;57.66;100898.16;456411;116;922993;-75
2022/08/08 03:01:46;;;;;;;3.07;2.67;;;;;;;21.59;57.63;100899.00;444646;118;923705;-75
2022/08/08 03:02:54;;;;;;;3.46;3.03;;;;;;;21.61;57.70;100896.78;451057;116;923005;-75
2022/08/08 03:04:17;;;;;;;3.94;3.22;;;;;;;21.61;57.89;100902.34;456447;116;922656;-75
2022/08/08 03:05:37;;;;;;;4.35;3.66;;;;;;;21.61;57.84;100905.91;430241;122;923308;-75
2022/08/08 03:07:16;;;;;;;3.82;3.45;;;;;;;21.64;57.91;100910.09;455328;116;922613;-75
2022/08/08 03:08:59;;;;;;;5.19;3.76;;;;;;;21.64;57.77;100910.92;456289;116;922858;-75
2022/08/08 03:10:23;;;;;;;4.01;3.61;;;;;;;21.65;57.62;100911.75;456460;116;922596;-75
2022/08/08 03:12:05;;;;;;;7.03;4.01;;;;;;;21.67;57.54;100906.73;453416;116;922578;-75
2022/08/08 03:13:30;;;;;;;4.79;3.50;;;;;;;21.68;57.50;100911.18;455578;116;922512;-75
2022/08/08 03:14:45;;;;;;;4.65;3.46;;;;;;;21.68;57.34;100910.34;463984;112;923148;-76
2022/08/08 03:16:16;;;;;;;5.21;3.93;;;;;;;21.68;57.29;100908.41;454226;115;922564;-75
2022/08/08 03:17:30;;;;;;;4.58;3.84;;;;;;;21.69;57.25;100914.79;456577;115;922763;-75
2022/08/08 03:19:13;;;;;;;8.78;4.12;;;;;;;21.70;57.27;100913.69;458592;115;922605;-75
2022/08/08 03:20:18;;;;;;;3.68;3.33;;;;;;;21.72;57.20;100919.80;459015;115;922595;-75
2022/08/08 03:21:22;;;;;;;4.31;3.52;;;;;;;21.72;57.14;100917.86;458727;115;923211;-75
2022/08/08 03:22:27;;;;;;;6.44;3.85;;;;;;;21.73;57.14;100925.05;457933;115;923559;-75
2022/08/08 03:23:33;;;;;;;6.12;3.69;;;;;;;21.75;57.14;100922.00;457836;115;930480;-75
2022/08/08 03:24:38;;;;;;;4.74;3.80;;;;;;;21.77;57.08;100928.95;457885;115;923062;-75
2022/08/08 03:25:45;;;;;;;4.93;3.23;;;;;;;21.79;57.00;100928.64;460326;115;922912;-75
2022/08/08 03:26:54;;;;;;;5.04;3.45;;;;;;;21.81;56.95;100929.20;460736;115;922767;-75
2022/08/08 03:28:13;;;;;;;4.22;3.82;;;;;;;21.83;56.94;100929.77;460693;115;922829;-75
2022/08/08 03:29:25;;;;;;;4.14;3.61;;;;;;;21.85;56.91;100928.36;460210;115;922621;-75
2022/08/08 03:30:30;;;;;;;5.15;3.77;;;;;;;21.87;56.83;100925.31;457349;115;922611;-76
2022/08/08 03:33:18;;;;;;;4.73;3.61;;;;;;;21.90;56.82;100936.67;459243;115;922616;-75
2022/08/08 03:34:25;;;;;;;4.86;3.68;;;;;;;21.93;56.65;100938.07;460293;114;922546;-75
2022/08/08 03:35:30;;;;;;;4.50;4.06;;;;;;;21.95;56.64;100935.85;463430;114;922757;-75
2022/08/08 03:36:42;;;;;;;3.73;3.43;;;;;;;21.95;56.56;100938.63;463227;114;922584;-75
2022/08/08 03:37:48;;;;;;;5.08;4.10;;;;;;;21.96;56.59;100945.86;463353;114;922610;-75
2022/08/08 03:38:53;;;;;;;4.28;3.71;;;;;;;21.96;56.68;100945.86;460696;114;922465;-75
2022/08/08 03:40:00;;;;;;;6.34;3.71;;;;;;;21.98;56.80;100944.47;460702;114;923145;-75
2022/08/08 03:41:05;;;;;;;4.93;3.66;;;;;;;21.98;56.83;100944.47;463416;114;923571;-75
2022/08/08 03:42:16;;;;;;;5.07;3.22;;;;;;;22.00;56.66;100947.78;462709;114;922633;-76
2022/08/08 03:43:21;;;;;;;4.64;3.95;;;;;;;22.02;56.53;100944.73;460396;114;923337;-75
2022/08/08 03:44:34;;;;;;;5.61;3.37;;;;;;;22.03;56.31;100941.68;462909;114;922539;-76
2022/08/08 03:45:40;;;;;;;4.94;3.71;;;;;;;22.04;56.18;100942.52;463350;114;922569;-75
2022/08/08 03:46:48;;;;;;;5.69;3.74;;;;;;;22.06;56.21;100943.05;454323;116;922682;-75
2022/08/08 03:48:01;;;;;;;5.05;3.52;;;;;;;22.07;56.14;100946.66;455464;114;922691;-75
2022/08/08 03:49:05;;;;;;;6.44;3.13;;;;;;;22.08;56.00;100946.38;463483;114;923204;-76
2022/08/08 03:50:19;;;;;;;3.85;3.42;;;;;;;22.11;55.93;100948.58;462846;114;922598;-76
2022/08/08 03:51:24;;;;;;;5.16;2.79;;;;;;;22.13;55.81;100951.08;463259;114;922807;-76
2022/08/08 03:52:33;;;;;;;8.08;3.43;;;;;;;22.14;55.68;100945.25;462721;114;922604;-76
2022/08/08 03:53:38;;;;;;;4.18;3.06;;;;;;;22.16;55.49;100950.53;463492;114;922599;-76
2022/08/08 03:54:44;;;;;;;2.96;2.59;;;;;;;22.17;55.35;100941.90;463172;114;922549;-76
2022/08/08 03:55:50;;;;;;;3.22;2.92;;;;;;;22.18;55.24;100949.13;460575;114;923002;-76
2022/08/08 03:56:55;;;;;;;4.01;2.46;;;;;;;22.20;55.18;100952.46;460735;114;922545;-76
2022/08/08 03:57:59;;;;;;;4.05;3.19;;;;;;;22.22;55.03;100947.44;463581;114;922614;-76
2022/08/08 03:59:04;;;;;;;6.78;3.03;;;;;;;22.24;54.97;100952.72;462759;114;922580;-76
2022/08/08 04:00:11;;;;;;;3.02;2.75;;;;;;;22.26;54.78;100944.94;463575;114;922794;-76
2022/08/08 04:01:16;;;;;;;2.71;2.49;;;;;;;22.27;54.68;100944.66;462759;114;930510;-76
2022/08/08 04:02:22;;;;;;;3.36;2.91;;;;;;;22.27;54.63;100944.66;462572;114;922558;-76
2022/08/08 04:03:35;;;;;;;2.55;2.35;;;;;;;22.29;54.58;100944.36;462829;114;922543;-75
2022/08/08 04:04:40;;;;;;;3.72;2.37;;;;;;;22.31;54.61;100948.53;460705;114;922634;-75
2022/08/08 04:05:45;;;;;;;2.49;2.29;;;;;;;22.32;54.42;100943.81;463570;114;922528;-75
2022/08/08 04:06:58;;;;;;;3.79;2.53;;;;;;;22.33;54.49;100945.45;463396;114;922533;-75
2022/08/08 04:08:06;;;;;;;3.68;2.66;;;;;;;22.34;54.38;100947.95;463438;114;923243;-75
2022/08/08 04:09:13;;;;;;;2.82;2.55;;;;;;;22.36;54.29;100947.67;463456;114;922597;-75
2022/08/08 04:10:18;;;;;;;2.88;2.67;;;;;;;22.38;54.31;100948.23;463185;114;923036;-75
2022/08/08 04:11:21;;;;;;;3.11;2.74;;;;;;;22.38;54.31;100951.81;462699;114;922625;-75
2022/08/08 04:12:26;;;;;;;4.44;2.64;;;;;;;22.40;54.34;100948.77;462053;114;922647;-75
2022/08/08 04:13:29;;;;;;;2.69;2.41;;;;;;;22.40;54.40;100945.98;460784;115;922568;-75
2022/08/08 04:14:35;;;;;;;2.83;2.49;;;;;;;22.43;54.39;100956.55;457982;115;922624;-75
2022/08/08 04:15:40;;;;;;;4.11;2.63;;;;;;;22.44;54.36;100947.91;452257;117;922973;-75
2022/08/08 04:16:45;;;;;;;3.78;2.26;;;;;;;22.45;54.38;100955.13;449437;117;922578;-75
2022/08/08 04:17:50;;;;;;;8.96;2.81;;;;;;;22.46;54.35;100956.80;452220;117;922678;-75
2022/08/08 04:18:56;;;;;;;3.83;2.30;;;;;;;22.49;54.32;100954.58;451423;117;922656;-75
2022/08/08 04:20:00;;;;;;;5.12;3.14;;;;;;;22.50;54.31;100959.83;452299;117;922558;-75
2022/08/08 04:21:05;;;;;;;3.90;2.63;;;;;;;22.52;54.28;100959.55;452185;117;923048;-75
2022/08/08 04:22:09;;;;;;;3.98;2.64;;;;;;;22.54;54.32;100958.16;453011;116;923157;-75
2022/08/08 04:23:15;;;;;;;3.54;2.36;;;;;;;22.55;54.25;100959.00;453987;116;923573;-74
2022/08/08 04:24:18;;;;;;;2.77;2.52;;;;;;;22.55;54.18;100959.80;454302;116;922735;-74
2022/08/08 04:25:22;;;;;;;2.60;2.28;;;;;;;22.57;54.08;100959.52;452762;116;922607;-75
2022/08/08 04:26:28;;;;;;;5.87;2.33;;;;;;;22.58;54.02;100956.47;453060;116;922636;-75
2022/08/08 04:27:33;;;;;;;3.82;2.63;;;;;;;22.59;53.96;100951.74;451432;116;922831;-74
2022/08/08 04:28:38;;;;;;;3.88;1.89;;;;;;;22.61;53.92;100953.10;450787;116;923148;-75
2022/08/08 04:29:43;;;;;;;3.02;2.20;;;;;;;22.63;53.87;100955.61;454234;116;922812;-75
2022/08/08 04:30:48;;;;;;;2.84;2.16;;;;;;;22.64;53.78;100952.55;456562;114;922640;-75
2022/08/08 04:31:51;;;;;;;5.84;2.21;;;;;;;22.67;53.76;100956.69;462641;114;922515;-75
2022/08/08 04:32:56;;;;;;;3.58;2.00;;;;;;;22.68;53.63;100950.84;461645;114;922593;-75
2022/08/08 04:34:04;;;;;;;2.54;1.99;;;;;;;22.69;53.53;100944.18;462485;114;922690;-75
2022/08/08 04:35:09;;;;;;;4.61;2.53;;;;;;;22.72;53.36;100956.69;462428;114;922632;-75
2022/08/08 04:36:15;;;;;;;4.03;2.53;;;;;;;22.73;53.13;100950.85;462496;114;922588;-75
2022/08/08 04:37:19;;;;;;;3.06;2.09;;;;;;;22.75;52.83;100954.19;462620;114;922688;-75
2022/08/08 04:38:25;;;;;;;3.94;2.39;;;;;;;22.76;52.56;100950.30;461886;114;930303;-75
2022/08/08 04:39:30;;;;;;;4.46;2.21;;;;;;;22.79;52.41;100944.15;462575;114;922628;-76
2022/08/08 04:40:35;;;;;;;3.43;2.33;;;;;;;22.83;52.29;100955.52;459529;114;922713;-75
2022/08/08 04:41:39;;;;;;;4.36;2.24;;;;;;;22.84;52.21;100954.41;462581;114;922683;-75
2022/08/08 04:42:42;;;;;;;2.21;1.84;;;;;;;22.86;52.21;100955.80;462517;114;930513;-75
2022/08/08 04:43:47;;;;;;;4.46;2.59;;;;;;;22.89;52.16;100957.16;459503;114;930403;-75
2022/08/08 04:44:56;;;;;;;5.09;2.74;;;;;;;22.92;52.16;100950.20;461727;114;922575;-75
2022/08/08 04:46:00;;;;;;;3.48;2.46;;;;;;;22.95;52.08;100957.95;462492;114;922894;-75
2022/08/08 04:47:06;;;;;;;3.89;2.01;;;;;;;22.98;51.97;100957.39;462473;114;922638;-75
2022/08/08 04:48:11;;;;;;;3.68;2.22;;;;;;;23.00;51.85;100955.97;462093;114;922661;-75
2022/08/08 04:49:15;;;;;;;1.88;1.77;;;;;;;23.03;51.80;100962.91;462451;114;922674;-75
2022/08/08 04:50:22;;;;;;;2.30;2.09;;;;;;;23.04;51.72;100954.30;462535;114;922613;-75
2022/08/08 04:51:27;;;;;;;4.58;1.94;;;;;;;23.08;51.65;100958.16;462112;114;923340;-75
2022/08/08 04:52:32;;;;;;;3.03;2.30;;;;;;;23.10;51.62;100960.66;459557;114;922634;-75
2022/08/08 04:53:38;;;;;;;2.66;2.32;;;;;;;23.13;51.63;100965.63;453846;116;922695;-75
2022/08/08 04:54:43;;;;;;;3.47;2.08;;;;;;;23.15;51.61;100963.39;451097;114;922897;-75
2022/08/08 04:55:48;;;;;;;4.39;2.15;;;;;;;23.16;51.69;100965.87;461905;114;923351;-76
2022/08/08 04:56:54;;;;;;;4.44;2.26;;;;;;;23.20;51.68;100971.70;461786;114;922563;-75
2022/08/08 04:57:57;;;;;;;3.89;2.42;;;;;;;23.22;51.66;100963.88;462584;114;922979;-75
2022/08/08 04:59:01;;;;;;;4.08;2.07;;;;;;;23.27;51.92;100961.05;462613;114;922626;-76
2022/08/08 05:00:06;;;;;;;2.94;2.06;;;;;;;23.27;51.92;100961.05;462703;114;922587;-76
2022/08/08 05:01:11;;;;;;;2.94;2.42;;;;;;;23.29;51.63;100961.61;462372;114;923008;-75
2022/08/08 05:02:16;;;;;;;3.34;2.23;;;;;;;23.33;51.56;100959.06;462339;114;922566;-76
2022/08/08 05:03:21;;;;;;;2.81;2.27;;;;;;;23.34;51.63;100960.73;462426;114;922588;-75
2022/08/08 05:04:26;;;;;;;3.89;2.38;;;;;;;23.37;51.60;100966.56;459624;114;922648;-75
2022/08/08 05:05:31;;;;;;;4.86;2.50;;;;;;;23.38;51.60;100968.20;453904;116;922689;-75
2022/08/08 05:06:37;;;;;;;6.75;2.41;;;;;;;23.40;51.70;100968.75;452331;115;923596;-75
2022/08/08 05:07:42;;;;;;;4.34;2.27;;;;;;;23.42;51.60;100965.69;460582;115;922971;-75
2022/08/08 05:08:47;;;;;;;5.32;2.01;;;;;;;23.43;51.48;100968.16;459297;114;923279;-76
2022/08/08 05:09:52;;;;;;;6.57;2.16;;;;;;;23.44;51.50;100968.99;453913;116;922628;-75
2022/08/08 05:10:57;;;;;;;4.44;2.55;;;;;;;23.46;51.26;100967.62;454017;116;923072;-75
2022/08/08 05:12:02;;;;;;;5.69;2.35;;;;;;;23.48;51.20;100970.96;454165;116;922587;-76
2022/08/08 05:13:06;;;;;;;4.23;2.27;;;;;;;23.50;51.03;100968.70;454088;116;923162;-75
2022/08/08 05:14:11;;;;;;;4.08;2.26;;;;;;;23.55;50.75;100970.60;452855;116;922738;-75
2022/08/08 05:15:18;;;;;;;4.59;2.34;;;;;;;23.55;50.75;100970.60;454299;116;922633;-75
2022/08/08 05:16:23;;;;;;;3.16;2.07;;;;;;;23.57;50.57;100969.20;454366;116;922807;-76
2022/08/08 05:17:28;;;;;;;5.08;2.20;;;;;;;23.60;50.45;100971.39;452541;116;922610;-75
2022/08/08 05:18:35;;;;;;;3.85;2.02;;;;;;;23.65;49.94;100973.32;452599;116;922703;-75
2022/08/08 05:19:40;;;;;;;2.61;2.23;;;;;;;23.65;49.94;100973.32;454502;116;923533;-76
2022/08/08 05:20:46;;;;;;;3.79;2.29;;;;;;;23.68;50.21;100970.77;452601;116;923378;-75
2022/08/08 05:21:54;;;;;;;3.39;2.29;;;;;;;23.71;50.15;100974.91;454076;116;922786;-75
2022/08/08 05:22:58;;;;;;;4.14;2.17;;;;;;;23.74;50.12;100967.94;453984;116;923003;-75
2022/08/08 05:24:04;;;;;;;3.45;2.41;;;;;;;23.75;50.13;100967.66;448453;118;922595;-75
2022/08/08 05:25:09;;;;;;;5.82;3.07;;;;;;;23.77;50.10;100964.55;448850;116;923070;-75
2022/08/08 05:26:14;;;;;;;3.23;1.99;;;;;;;23.79;50.06;100973.45;454541;116;923277;-75
2022/08/08 05:27:19;;;;;;;3.31;2.54;;;;;;;23.82;49.97;100975.67;454219;116;930396;-76
2022/08/08 05:28:24;;;;;;;2.75;2.44;;;;;;;23.84;49.95;100973.41;454528;116;922551;-76
2022/08/08 05:29:28;;;;;;;3.61;2.34;;;;;;;23.86;49.88;100966.43;452397;116;930336;-76
2022/08/08 05:30:32;;;;;;;2.79;2.16;;;;;;;23.88;49.62;100971.69;444049;119;923132;-75
2022/08/08 05:31:36;;;;;;;2.96;2.21;;;;;;;23.91;49.50;100971.11;444980;119;922704;-76
2022/08/08 05:32:41;;;;;;;4.68;2.31;;;;;;;23.93;49.38;100977.20;443043;117;930657;-75
2022/08/08 05:33:47;;;;;;;3.48;2.36;;;;;;;23.95;49.30;100973.02;444950;119;922802;-76
2022/08/08 05:34:52;;;;;;;3.12;2.46;;;;;;;23.97;49.26;100970.77;445531;117;922687;-76
2022/08/08 05:36:01;;;;;;;4.87;2.53;;;;;;;24.00;49.13;100977.69;453232;117;922631;-75
2022/08/08 05:37:05;;;;;;;3.81;2.28;;;;;;;24.02;48.99;100981.86;453406;117;922712;-76
2022/08/08 05:38:13;;;;;;;3.09;2.33;;;;;;;24.05;48.84;100977.64;451911;117;922634;-75
2022/08/08 05:39:24;;;;;;;3.18;2.64;;;;;;;24.10;48.89;100977.58;451056;117;922762;-75
2022/08/08 05:40:29;;;;;;;4.73;2.75;;;;;;;24.10;48.89;100977.58;453071;117;922636;-76
2022/08/08 05:41:35;;;;;;;3.48;2.84;;;;;;;24.13;48.63;100990.94;452415;117;923142;-75
2022/08/08 05:42:44;;;;;;;3.67;2.36;;;;;;;24.17;48.43;100978.06;450537;117;922853;-75
2022/08/08 05:43:48;;;;;;;4.61;2.54;;;;;;;24.21;48.38;100976.37;453266;117;922694;-76
2022/08/08 05:44:55;;;;;;;3.54;2.62;;;;;;;24.24;48.68;100986.11;450587;117;923395;-76
2022/08/08 05:46:04;;;;;;;3.24;2.37;;;;;;;24.24;48.68;100986.11;452965;117;922678;-75
2022/08/08 05:47:12;;;;;;;4.07;2.44;;;;;;;24.26;48.60;100990.25;452710;117;923103;-75
2022/08/08 05:48:16;;;;;;;3.57;2.72;;;;;;;24.29;48.56;100981.31;453220;117;922595;-76